createdAt,value
2017-11-18T00:01:47.409Z,6.70
2017-11-18T00:04:14.833Z,6.70
2017-11-18T00:06:42.260Z,6.70
2017-11-18T00:09:10.226Z,6.70
2017-11-18T00:11:37.693Z,6.70
2017-11-18T00:14:05.118Z,6.70
2017-11-18T00:16:32.564Z,6.60
2017-11-18T00:18:59.986Z,6.60
2017-11-18T00:21:27.677Z,6.60
2017-11-18T00:23:55.130Z,6.60
2017-11-18T00:26:22.555Z,6.50
2017-11-18T00:28:49.974Z,6.50
2017-11-18T00:31:17.825Z,6.50
2017-11-18T00:33:45.652Z,6.50
2017-11-18T00:36:13.088Z,6.50
2017-11-18T00:38:40.512Z,6.60
2017-11-18T00:41:08.340Z,6.60
2017-11-18T00:43:35.768Z,6.60
2017-11-18T00:46:03.214Z,6.60
2017-11-18T00:48:30.638Z,6.70
2017-11-18T00:50:58.474Z,6.60
2017-11-18T00:53:25.911Z,6.60
2017-11-18T00:55:53.347Z,6.70
2017-11-18T00:58:20.974Z,6.70
2017-11-18T01:00:48.803Z,6.70
2017-11-18T01:03:16.229Z,6.70
2017-11-18T01:05:43.809Z,6.70
2017-11-18T01:08:11.244Z,6.60
2017-11-18T01:10:38.679Z,6.60
2017-11-18T01:13:06.966Z,6.70
2017-11-18T01:15:34.394Z,6.60
2017-11-18T01:18:01.819Z,6.60
2017-11-18T01:20:29.263Z,6.60
2017-11-18T01:22:56.717Z,6.60
2017-11-18T01:25:24.200Z,6.60
2017-11-18T01:27:51.661Z,6.60
2017-11-18T01:30:19.492Z,6.60
2017-11-18T01:32:46.917Z,6.70
2017-11-18T01:35:14.375Z,6.70
2017-11-18T01:37:41.824Z,6.70
2017-11-18T01:40:09.249Z,6.70
2017-11-18T01:42:36.685Z,6.60
2017-11-18T01:45:04.109Z,6.60
2017-11-18T01:47:31.849Z,6.60
2017-11-18T01:49:59.285Z,6.60
2017-11-18T01:52:26.710Z,6.60
2017-11-18T01:54:54.157Z,6.50
2017-11-18T01:57:21.597Z,6.40
2017-11-18T01:59:49.005Z,6.40
2017-11-18T02:02:28.448Z,6.40
2017-11-18T02:04:55.869Z,6.40
2017-11-18T02:07:23.690Z,6.30
2017-11-18T02:09:51.119Z,6.30
2017-11-18T02:12:18.550Z,6.30
2017-11-18T02:14:46.395Z,6.40
2017-11-18T02:17:13.823Z,6.40
2017-11-18T02:19:41.248Z,6.40
2017-11-18T02:22:08.938Z,6.40
2017-11-18T02:24:36.374Z,6.40
2017-11-18T02:27:03.794Z,6.40
2017-11-18T02:29:32.003Z,6.40
2017-11-18T02:31:59.443Z,6.40
2017-11-18T02:34:26.881Z,6.50
2017-11-18T02:36:54.341Z,6.50
2017-11-18T02:39:21.764Z,6.50
2017-11-18T02:41:49.187Z,6.50
2017-11-18T02:44:16.912Z,6.50
2017-11-18T02:46:44.722Z,6.40
2017-11-18T02:49:12.153Z,6.40
2017-11-18T02:51:39.737Z,6.50
2017-11-18T02:54:07.182Z,6.50
2017-11-18T02:56:34.602Z,6.40
2017-11-18T02:59:02.029Z,6.40
2017-11-18T03:01:29.853Z,6.30
2017-11-18T03:03:57.295Z,6.30
2017-11-18T03:06:25.582Z,6.30
2017-11-18T03:08:53.011Z,6.30
2017-11-18T03:11:20.445Z,6.30
2017-11-18T03:13:48.265Z,6.50
2017-11-18T03:16:15.704Z,6.50
2017-11-18T03:18:43.122Z,6.50
2017-11-18T03:21:10.562Z,6.50
2017-11-18T03:23:38.382Z,6.50
2017-11-18T03:26:05.814Z,6.40
2017-11-18T03:28:33.268Z,6.50
2017-11-18T03:31:00.691Z,6.50
2017-11-18T03:33:28.510Z,6.50
2017-11-18T03:35:55.959Z,6.50
2017-11-18T03:38:23.383Z,6.50
2017-11-18T03:40:50.801Z,6.50
2017-11-18T03:43:18.241Z,6.50
2017-11-18T03:45:45.670Z,6.50
2017-11-18T03:48:13.086Z,6.50
2017-11-18T03:50:41.301Z,6.40
2017-11-18T03:53:08.734Z,6.40
2017-11-18T03:55:36.162Z,6.40
2017-11-18T03:58:03.989Z,6.30
2017-11-18T04:00:31.418Z,6.30
2017-11-18T04:02:59.212Z,6.30
2017-11-18T04:05:26.635Z,6.40
2017-11-18T04:07:54.058Z,6.30
2017-11-18T04:10:22.795Z,6.30
2017-11-18T04:12:50.213Z,6.30
2017-11-18T04:15:17.646Z,6.30
2017-11-18T04:17:45.485Z,6.20
2017-11-18T04:20:12.925Z,6.20
2017-11-18T04:22:40.345Z,6.20
2017-11-18T04:25:07.808Z,6.20
2017-11-18T04:27:35.227Z,6.20
2017-11-18T04:30:03.063Z,6.10
2017-11-18T04:32:31.318Z,6.10
2017-11-18T04:34:58.746Z,6.20
2017-11-18T04:37:26.185Z,6.10
2017-11-18T04:39:54.170Z,6.20
2017-11-18T04:42:21.585Z,6.20
2017-11-18T04:44:49.011Z,6.20
2017-11-18T04:47:16.470Z,6.20
2017-11-18T04:49:43.905Z,6.20
2017-11-18T04:52:11.322Z,6.20
2017-11-18T04:54:39.432Z,6.30
2017-11-18T04:57:06.863Z,6.30
2017-11-18T04:59:34.294Z,6.30
2017-11-18T05:02:02.113Z,6.30
2017-11-18T05:04:30.698Z,6.30
2017-11-18T05:06:58.130Z,6.30
2017-11-18T05:09:25.556Z,6.30
2017-11-18T05:11:53.873Z,6.30
2017-11-18T05:14:21.298Z,6.30
2017-11-18T05:16:48.722Z,6.30
2017-11-18T05:19:16.157Z,6.30
2017-11-18T05:21:43.596Z,6.30
2017-11-18T05:24:11.023Z,6.30
2017-11-18T05:26:38.617Z,6.30
2017-11-18T05:29:06.048Z,6.30
2017-11-18T05:31:33.478Z,6.30
2017-11-18T05:34:00.941Z,6.40
2017-11-18T05:36:28.378Z,6.30
2017-11-18T05:38:56.199Z,6.30
2017-11-18T05:41:23.630Z,6.30
2017-11-18T05:43:51.055Z,6.20
2017-11-18T05:46:18.907Z,6.20
2017-11-18T05:48:46.717Z,6.20
2017-11-18T05:51:14.415Z,6.20
2017-11-18T05:53:41.846Z,6.20
2017-11-18T05:56:09.289Z,6.20
2017-11-18T05:58:36.714Z,6.20
2017-11-18T06:01:04.970Z,6.10
2017-11-18T06:03:32.785Z,6.10
2017-11-18T06:06:00.214Z,6.10
2017-11-18T06:08:27.821Z,6.00
2017-11-18T06:10:55.244Z,6.00
2017-11-18T06:13:22.672Z,6.00
2017-11-18T06:15:50.289Z,6.00
2017-11-18T06:18:17.722Z,5.90
2017-11-18T06:20:45.155Z,5.90
2017-11-18T06:23:12.934Z,5.90
2017-11-18T06:25:40.354Z,5.90
2017-11-18T06:28:07.776Z,5.90
2017-11-18T06:30:35.211Z,5.90
2017-11-18T06:33:02.955Z,5.90
2017-11-18T06:35:30.383Z,5.90
2017-11-18T06:37:57.809Z,5.80
2017-11-18T06:40:25.243Z,5.90
2017-11-18T06:42:52.706Z,5.90
2017-11-18T06:45:20.133Z,5.80
2017-11-18T06:47:47.561Z,5.90
2017-11-18T06:50:15.005Z,5.90
2017-11-18T06:52:42.819Z,5.80
2017-11-18T06:55:10.257Z,5.90
2017-11-18T06:57:38.707Z,5.90
2017-11-18T07:00:06.130Z,5.90
2017-11-18T07:02:33.564Z,5.90
2017-11-18T07:05:01.015Z,5.90
2017-11-18T07:07:28.435Z,5.90
2017-11-18T07:09:55.852Z,5.90
2017-11-18T07:12:23.303Z,6.00
2017-11-18T07:14:50.745Z,5.90
2017-11-18T07:17:18.171Z,5.90
2017-11-18T07:19:46.657Z,6.00
2017-11-18T07:22:14.125Z,6.00
2017-11-18T07:24:41.638Z,6.10
2017-11-18T07:27:09.069Z,6.10
2017-11-18T07:29:36.899Z,6.20
2017-11-18T07:32:04.353Z,6.20
2017-11-18T07:34:31.782Z,6.30
2017-11-18T07:36:59.205Z,6.30
2017-11-18T07:39:27.198Z,6.40
2017-11-18T07:41:54.636Z,6.40
2017-11-18T07:44:22.445Z,6.40
2017-11-18T07:46:50.193Z,6.40
2017-11-18T07:49:17.620Z,6.50
2017-11-18T07:51:45.071Z,6.50
2017-11-18T07:54:12.914Z,6.60
2017-11-18T07:56:40.346Z,6.60
2017-11-18T07:59:07.790Z,6.60
2017-11-18T08:01:36.035Z,6.60
2017-11-18T08:04:03.458Z,6.60
2017-11-18T08:06:31.283Z,6.70
2017-11-18T08:08:59.132Z,6.70
2017-11-18T08:11:26.906Z,6.70
2017-11-18T08:13:54.474Z,6.70
2017-11-18T08:16:21.966Z,6.70
2017-11-18T08:18:50.193Z,6.70
2017-11-18T08:21:19.844Z,6.80
2017-11-18T08:23:47.724Z,6.80
2017-11-18T08:26:15.433Z,6.80
2017-11-18T08:28:42.868Z,6.80
2017-11-18T08:31:10.285Z,6.80
2017-11-18T08:33:38.139Z,6.90
2017-11-18T08:36:18.184Z,6.90
2017-11-18T08:38:45.603Z,6.90
2017-11-18T08:41:13.060Z,6.90
2017-11-18T08:43:40.481Z,6.90
2017-11-18T08:46:08.754Z,6.90
2017-11-18T08:48:39.545Z,6.90
2017-11-18T08:51:06.977Z,7.00
2017-11-18T08:53:34.403Z,7.00
2017-11-18T08:56:01.930Z,7.00
2017-11-18T08:58:29.759Z,7.00
2017-11-18T09:00:57.209Z,7.00
2017-11-18T09:03:24.685Z,7.00
2017-11-18T09:05:52.114Z,6.90
2017-11-18T09:08:19.544Z,6.90
2017-11-18T09:10:47.078Z,6.90
2017-11-18T09:13:14.910Z,6.90
2017-11-18T09:15:42.475Z,6.90
2017-11-18T09:18:09.981Z,6.90
2017-11-18T09:20:37.399Z,6.90
2017-11-18T09:23:05.222Z,7.00
2017-11-18T09:25:32.654Z,7.00
2017-11-18T09:28:00.082Z,7.00
2017-11-18T09:30:27.904Z,7.10
2017-11-18T09:32:55.370Z,7.10
2017-11-18T09:35:22.901Z,7.10
2017-11-18T09:37:50.349Z,7.10
2017-11-18T09:40:18.627Z,7.20
2017-11-18T09:42:46.052Z,7.20
2017-11-18T09:45:13.478Z,7.10
2017-11-18T09:47:41.022Z,7.10
2017-11-18T09:50:08.451Z,7.10
2017-11-18T09:52:35.869Z,7.20
2017-11-18T09:55:03.296Z,7.20
2017-11-18T09:57:30.722Z,7.20
2017-11-18T09:59:58.184Z,7.10
2017-11-18T10:02:25.611Z,6.80
2017-11-18T10:04:53.074Z,6.90
2017-11-18T10:07:20.759Z,6.80
2017-11-18T10:09:48.181Z,6.90
2017-11-18T10:12:15.605Z,6.90
2017-11-18T10:14:43.437Z,6.80
2017-11-18T10:17:10.866Z,6.80
2017-11-18T10:19:38.297Z,6.30
2017-11-18T10:22:05.733Z,6.30
2017-11-18T10:24:33.557Z,6.30
2017-11-18T10:27:00.990Z,6.30
2017-11-18T10:29:28.426Z,6.40
2017-11-18T10:31:55.847Z,6.00
2017-11-18T10:34:23.674Z,6.00
2017-11-18T10:36:51.132Z,6.00
2017-11-18T10:39:18.571Z,6.00
2017-11-18T10:41:46.077Z,6.10
2017-11-18T10:44:13.944Z,6.00
2017-11-18T10:46:41.363Z,6.00
2017-11-18T10:49:08.798Z,6.10
2017-11-18T10:51:36.253Z,6.10
2017-11-18T10:54:03.678Z,6.10
2017-11-18T10:56:31.126Z,6.00
2017-11-18T10:58:58.949Z,6.00
2017-11-18T11:01:26.381Z,6.00
2017-11-18T11:03:53.806Z,6.00
2017-11-18T11:06:21.260Z,6.00
2017-11-18T11:08:49.371Z,5.90
2017-11-18T11:11:16.794Z,5.90
2017-11-18T11:13:44.224Z,5.90
2017-11-18T11:16:12.347Z,5.90
2017-11-18T11:18:39.773Z,5.90
2017-11-18T11:21:07.190Z,6.00
2017-11-18T11:23:34.631Z,5.80
2017-11-18T11:26:02.057Z,5.60
2017-11-18T11:28:30.058Z,5.30
2017-11-18T11:30:57.562Z,5.30
2017-11-18T11:33:24.986Z,5.40
2017-11-18T11:35:52.463Z,5.40
2017-11-18T11:38:20.304Z,5.40
2017-11-18T11:40:47.720Z,5.40
2017-11-18T11:43:15.145Z,5.40
2017-11-18T11:45:42.971Z,5.40
2017-11-18T11:48:10.704Z,5.50
2017-11-18T11:50:38.122Z,5.50
2017-11-18T11:53:05.558Z,5.50
2017-11-18T11:55:34.283Z,5.50
2017-11-18T11:58:01.710Z,5.60
2017-11-18T12:00:29.131Z,5.40
2017-11-18T12:02:56.566Z,5.50
2017-11-18T12:05:24.000Z,5.50
2017-11-18T12:07:52.422Z,5.40
2017-11-18T12:10:19.866Z,5.50
2017-11-18T12:12:47.294Z,5.40
2017-11-18T12:15:14.717Z,5.30
2017-11-18T12:17:42.160Z,5.20
2017-11-18T12:20:09.991Z,5.40
2017-11-18T12:22:37.406Z,5.40
2017-11-18T12:25:04.851Z,5.20
2017-11-18T12:27:32.269Z,5.10
2017-11-18T12:29:59.701Z,5.10
2017-11-18T12:32:27.133Z,5.10
2017-11-18T12:34:54.545Z,5.20
2017-11-18T12:37:22.371Z,5.00
2017-11-18T12:39:50.013Z,5.00
2017-11-18T12:42:17.445Z,4.80
2017-11-18T12:44:44.861Z,4.70
2017-11-18T12:47:12.396Z,4.80
2017-11-18T12:49:39.883Z,4.80
2017-11-18T12:52:07.313Z,4.80
2017-11-18T12:54:35.054Z,4.80
2017-11-18T12:57:02.499Z,4.80
2017-11-18T12:59:30.097Z,4.80
2017-11-18T13:01:57.749Z,4.90
2017-11-18T13:04:25.166Z,5.00
2017-11-18T13:06:52.589Z,5.00
2017-11-18T13:09:20.577Z,5.60
2017-11-18T13:11:47.990Z,5.70
2017-11-18T13:14:15.419Z,6.00
2017-11-18T13:16:42.898Z,5.90
2017-11-18T13:19:10.326Z,6.10
2017-11-18T13:21:37.752Z,5.50
2017-11-18T13:24:05.201Z,5.20
2017-11-18T13:26:32.631Z,5.00
2017-11-18T13:29:01.005Z,5.00
2017-11-18T13:31:28.458Z,4.90
2017-11-18T13:33:55.896Z,4.90
2017-11-18T13:36:23.334Z,5.00
2017-11-18T13:38:50.913Z,5.00
2017-11-18T13:41:18.318Z,5.20
2017-11-18T13:43:45.742Z,5.60
2017-11-18T13:46:13.597Z,6.70
2017-11-18T13:48:41.043Z,6.70
2017-11-18T13:51:08.499Z,6.50
2017-11-18T13:53:36.866Z,6.30
2017-11-18T13:56:04.291Z,6.50
2017-11-18T13:58:31.710Z,6.20
2017-11-18T14:01:00.452Z,5.80
2017-11-18T14:03:27.889Z,5.80
2017-11-18T14:05:55.317Z,5.60
2017-11-18T14:08:22.757Z,5.70
2017-11-18T14:10:50.565Z,6.60
2017-11-18T14:13:18.115Z,6.60
2017-11-18T14:15:45.564Z,6.60
2017-11-18T14:18:12.974Z,6.60
2017-11-18T14:20:40.434Z,6.50
2017-11-18T14:23:08.257Z,5.70
2017-11-18T14:25:35.683Z,5.70
2017-11-18T14:28:03.115Z,5.70
2017-11-18T14:30:30.934Z,5.50
2017-11-18T14:32:58.352Z,5.60
2017-11-18T14:35:25.802Z,5.50
2017-11-18T14:37:53.290Z,5.40
2017-11-18T14:40:20.759Z,5.30
2017-11-18T14:42:48.197Z,5.30
2017-11-18T14:45:15.655Z,5.30
2017-11-18T14:47:43.086Z,5.30
2017-11-18T14:50:10.517Z,5.30
2017-11-18T14:52:38.349Z,5.20
2017-11-18T14:55:10.448Z,5.20
2017-11-18T14:57:37.927Z,5.10
2017-11-18T15:00:05.357Z,5.10
2017-11-18T15:02:33.704Z,5.00
2017-11-18T15:05:01.225Z,5.00
2017-11-18T15:07:28.652Z,5.00
2017-11-18T15:09:56.386Z,5.00
2017-11-18T15:12:23.813Z,4.90
2017-11-18T15:14:55.702Z,4.90
2017-11-18T15:17:28.726Z,4.90
2017-11-18T15:20:02.564Z,4.80
2017-11-18T15:22:40.430Z,4.80
2017-11-18T15:25:13.658Z,4.80
2017-11-18T15:27:46.805Z,4.80
2017-11-18T15:30:14.720Z,4.70
2017-11-18T15:32:44.557Z,4.70
2017-11-18T15:35:13.812Z,4.60
2017-11-18T15:37:46.080Z,4.60
2017-11-18T15:40:13.514Z,4.60
2017-11-18T15:42:40.937Z,4.60
2017-11-18T15:48:22.997Z,4.60
2017-11-18T15:50:57.015Z,4.60
2017-11-18T15:53:30.177Z,4.70
2017-11-18T15:59:14.691Z,4.60
2017-11-18T16:15:18.700Z,4.60
2017-11-18T16:17:46.124Z,4.60
2017-11-18T16:20:13.551Z,4.60
2017-11-18T16:22:41.341Z,4.60
2017-11-18T16:25:08.775Z,4.60
2017-11-18T16:27:36.218Z,4.60
2017-11-18T16:30:03.674Z,4.60
2017-11-18T16:32:31.102Z,4.60
2017-11-18T16:34:58.930Z,4.60
2017-11-18T16:37:26.389Z,4.60
2017-11-18T16:39:54.033Z,4.60
2017-11-18T16:42:21.457Z,4.50
2017-11-18T16:44:48.910Z,4.60
2017-11-18T16:47:16.365Z,4.60
2017-11-18T16:49:43.825Z,4.60
2017-11-18T16:52:11.311Z,4.60
2017-11-18T16:54:38.966Z,4.60
2017-11-18T16:57:06.421Z,4.60
2017-11-18T16:59:33.864Z,4.70
2017-11-18T17:02:01.306Z,4.60
2017-11-18T17:04:29.113Z,4.50
2017-11-18T17:06:56.633Z,4.60
2017-11-18T17:09:24.045Z,4.50
2017-11-18T17:11:52.213Z,4.50
2017-11-18T17:14:19.643Z,4.50
2017-11-18T17:16:47.077Z,4.50
2017-11-18T17:19:15.373Z,4.50
2017-11-18T17:21:42.817Z,4.40
2017-11-18T17:24:10.302Z,4.30
2017-11-18T17:26:37.759Z,4.40
2017-11-18T17:29:05.184Z,4.40
2017-11-18T17:31:32.639Z,4.40
2017-11-18T17:34:00.086Z,4.40
2017-11-18T17:36:27.529Z,4.40
2017-11-18T17:38:54.984Z,4.40
2017-11-18T17:41:22.415Z,4.30
2017-11-18T17:43:50.257Z,4.40
2017-11-18T17:46:17.694Z,4.40
2017-11-18T17:48:45.150Z,4.40
2017-11-18T17:51:12.583Z,4.40
2017-11-18T17:53:40.031Z,4.30
2017-11-18T17:56:07.480Z,4.30
2017-11-18T17:58:34.918Z,4.30
2017-11-18T18:01:02.346Z,4.30
2017-11-18T18:03:30.164Z,4.40
2017-11-18T18:05:57.611Z,4.40
2017-11-18T18:08:25.046Z,4.40
2017-11-18T18:10:52.494Z,4.40
2017-11-18T18:13:20.127Z,4.30
2017-11-18T18:15:47.961Z,4.40
2017-11-18T18:18:15.393Z,4.40
2017-11-18T18:20:42.849Z,4.40
2017-11-18T18:23:10.270Z,4.40
2017-11-18T18:25:38.186Z,4.40
2017-11-18T18:28:06.446Z,4.40
2017-11-18T18:30:33.865Z,4.50
2017-11-18T18:33:01.686Z,4.50
2017-11-18T18:35:29.131Z,4.50
2017-11-18T18:37:56.567Z,4.50
2017-11-18T18:40:23.993Z,4.50
2017-11-18T18:42:51.526Z,4.60
2017-11-18T18:45:18.950Z,4.60
2017-11-18T18:47:46.371Z,4.60
2017-11-18T18:50:13.821Z,4.60
2017-11-18T18:52:41.246Z,4.70
2017-11-18T18:55:08.670Z,4.70
2017-11-18T18:57:36.109Z,4.70
2017-11-18T19:00:03.541Z,4.80
2017-11-18T19:02:30.961Z,4.80
2017-11-18T19:04:58.683Z,4.80
2017-11-18T19:07:26.111Z,4.80
2017-11-18T19:09:53.542Z,4.80
2017-11-18T19:12:21.369Z,4.90
2017-11-18T19:14:48.794Z,4.90
2017-11-18T19:17:16.222Z,4.90
2017-11-18T19:19:44.046Z,4.90
2017-11-18T19:22:11.476Z,4.90
2017-11-18T19:24:38.914Z,4.90
2017-11-18T19:27:06.345Z,4.80
2017-11-18T19:29:34.163Z,4.80
2017-11-18T19:32:01.918Z,4.80
2017-11-18T19:34:29.354Z,4.80
2017-11-18T19:36:56.778Z,4.80
2017-11-18T19:39:24.486Z,4.80
2017-11-18T19:41:51.919Z,4.80
2017-11-18T19:44:19.346Z,4.80
2017-11-18T19:46:47.439Z,4.80
2017-11-18T19:49:14.866Z,4.80
2017-11-18T19:51:42.687Z,4.80
2017-11-18T19:54:10.132Z,4.90
2017-11-18T19:56:37.570Z,4.80
2017-11-18T19:59:04.986Z,4.80
2017-11-18T20:01:32.446Z,4.80
2017-11-18T20:04:00.285Z,4.70
2017-11-18T20:06:27.717Z,4.70
2017-11-18T20:08:55.156Z,4.70
2017-11-18T20:11:22.573Z,4.70
2017-11-18T20:13:50.401Z,4.70
2017-11-18T20:16:18.667Z,4.70
2017-11-18T20:18:46.098Z,4.70
2017-11-18T20:21:13.518Z,4.70
2017-11-18T20:23:40.973Z,4.70
2017-11-18T20:26:08.399Z,4.70
2017-11-18T20:28:35.825Z,4.70
2017-11-18T20:31:03.262Z,4.70
2017-11-18T20:33:30.690Z,4.80
2017-11-18T20:35:58.123Z,4.70
2017-11-18T20:38:25.873Z,4.80
2017-11-18T20:40:53.303Z,4.80
2017-11-18T20:43:20.724Z,4.90
2017-11-18T20:45:49.558Z,4.90
2017-11-18T20:48:16.990Z,4.90
2017-11-18T20:50:44.415Z,4.80
2017-11-18T20:53:11.833Z,4.60
2017-11-18T20:55:39.262Z,4.60
2017-11-18T20:58:06.713Z,4.60
2017-11-18T21:00:34.141Z,4.60
2017-11-18T21:03:01.967Z,4.60
2017-11-18T21:05:29.403Z,4.60
2017-11-18T21:07:56.837Z,4.60
2017-11-18T21:10:24.445Z,4.60
2017-11-18T21:12:52.159Z,4.60
2017-11-18T21:15:19.576Z,4.70
2017-11-18T21:17:47.398Z,4.80
2017-11-18T21:20:14.875Z,4.80
2017-11-18T21:22:42.304Z,4.80
2017-11-18T21:25:09.727Z,4.90
2017-11-18T21:27:37.548Z,4.80
2017-11-18T21:30:04.967Z,4.80
2017-11-18T21:32:32.422Z,4.80
2017-11-18T21:34:59.863Z,4.80
2017-11-18T21:37:27.277Z,4.80
2017-11-18T21:39:54.702Z,4.80
2017-11-18T21:42:22.149Z,4.80
2017-11-18T21:44:49.567Z,4.80
2017-11-18T21:47:17.385Z,4.70
2017-11-18T21:49:44.805Z,4.70
2017-11-18T21:52:12.277Z,4.70
2017-11-18T21:54:39.693Z,4.70
2017-11-18T21:57:07.513Z,4.70
2017-11-18T21:59:35.258Z,4.70
2017-11-18T22:02:02.689Z,4.70
2017-11-18T22:04:30.114Z,4.80
2017-11-18T22:06:57.585Z,4.80
2017-11-18T22:09:25.400Z,4.70
2017-11-18T22:11:52.832Z,4.70
2017-11-18T22:14:20.282Z,4.70
2017-11-18T22:16:47.714Z,4.70
2017-11-18T22:19:15.525Z,4.60
2017-11-18T22:21:42.978Z,4.60
2017-11-18T22:24:10.393Z,4.60
2017-11-18T22:26:37.818Z,4.60
2017-11-18T22:29:05.261Z,4.50
2017-11-18T22:31:32.690Z,4.60
2017-11-18T22:34:00.133Z,4.50
2017-11-18T22:36:27.567Z,4.60
2017-11-18T22:38:55.381Z,4.70
2017-11-18T22:41:22.921Z,4.70
2017-11-18T22:43:50.373Z,4.60
2017-11-18T22:46:17.807Z,4.60
2017-11-18T22:48:45.257Z,4.60
2017-11-18T22:51:12.678Z,4.70
2017-11-18T22:53:40.305Z,4.70
2017-11-18T22:56:07.767Z,4.70
2017-11-18T22:58:35.185Z,4.70
2017-11-18T23:01:02.625Z,4.70
2017-11-18T23:03:30.436Z,4.60
2017-11-18T23:05:57.856Z,4.60
2017-11-18T23:08:25.294Z,4.60
2017-11-18T23:10:53.123Z,4.60
2017-11-18T23:13:20.543Z,4.60
2017-11-18T23:15:48.004Z,4.60
2017-11-18T23:18:15.426Z,4.60
2017-11-18T23:20:43.240Z,4.40
2017-11-18T23:23:10.692Z,4.40
2017-11-18T23:25:38.109Z,4.40
2017-11-18T23:28:05.529Z,4.40
2017-11-18T23:30:33.153Z,4.40
2017-11-18T23:33:00.573Z,4.50
2017-11-18T23:35:27.997Z,4.50
2017-11-18T23:37:55.454Z,4.60
2017-11-18T23:42:56.852Z,4.50
2017-11-18T23:45:24.274Z,4.50
2017-11-18T23:47:52.119Z,4.60
2017-11-18T23:50:19.539Z,4.60
2017-11-18T23:52:46.972Z,4.60
2017-11-18T23:55:14.508Z,4.60
2017-11-18T23:57:41.934Z,4.50
